sensor_id;sensor_type;location;lat;lon;timestamp;P1;durP1;ratioP1;P2;durP2;ratioP2
20454;SDS011;10386;54.314;10.022;2022-07-06T00:00:41;6.60;;;1.67;;
20454;SDS011;10386;54.314;10.022;2022-07-06T00:03:09;9.60;;;2.57;;
20454;SDS011;10386;54.314;10.022;2022-07-06T00:05:37;4.30;;;1.63;;
20454;SDS011;10386;54.314;10.022;2022-07-06T00:08:05;4.37;;;1.80;;
20454;SDS011;10386;54.314;10.022;2022-07-06T00:10:34;4.10;;;1.70;;
20454;SDS011;10386;54.314;10.022;2022-07-06T00:13:03;3.13;;;1.60;;
20454;SDS011;10386;54.314;10.022;2022-07-06T00:15:32;3.67;;;1.40;;
20454;SDS011;10386;54.314;10.022;2022-07-06T00:18:00;4.77;;;1.53;;
20454;SDS011;10386;54.314;10.022;2022-07-06T00:20:28;4.67;;;1.60;;
20454;SDS011;10386;54.314;10.022;2022-07-06T00:22:59;7.03;;;1.70;;
20454;SDS011;10386;54.314;10.022;2022-07-06T00:25:28;2.07;;;1.73;;
20454;SDS011;10386;54.314;10.022;2022-07-06T00:27:56;4.70;;;1.50;;
20454;SDS011;10386;54.314;10.022;2022-07-06T00:30:25;2.50;;;1.30;;
20454;SDS011;10386;54.314;10.022;2022-07-06T00:32:52;5.90;;;1.60;;
20454;SDS011;10386;54.314;10.022;2022-07-06T00:35:20;3.33;;;1.60;;
20454;SDS011;10386;54.314;10.022;2022-07-06T00:37:49;5.87;;;1.50;;
20454;SDS011;10386;54.314;10.022;2022-07-06T00:40:17;3.73;;;1.30;;
20454;SDS011;10386;54.314;10.022;2022-07-06T00:42:50;8.13;;;1.70;;
20454;SDS011;10386;54.314;10.022;2022-07-06T00:45:18;3.17;;;1.60;;
20454;SDS011;10386;54.314;10.022;2022-07-06T00:47:46;5.23;;;1.40;;
20454;SDS011;10386;54.314;10.022;2022-07-06T00:50:15;2.80;;;1.37;;
20454;SDS011;10386;54.314;10.022;2022-07-06T00:55:22;4.33;;;1.90;;
20454;SDS011;10386;54.314;10.022;2022-07-06T00:57:52;5.37;;;1.67;;
20454;SDS011;10386;54.314;10.022;2022-07-06T01:00:22;4.27;;;1.57;;
20454;SDS011;10386;54.314;10.022;2022-07-06T01:02:53;4.30;;;1.27;;
20454;SDS011;10386;54.314;10.022;2022-07-06T01:05:22;2.03;;;1.57;;
20454;SDS011;10386;54.314;10.022;2022-07-06T01:07:51;2.90;;;1.43;;
20454;SDS011;10386;54.314;10.022;2022-07-06T01:10:20;7.33;;;2.13;;
20454;SDS011;10386;54.314;10.022;2022-07-06T01:12:49;2.33;;;1.60;;
20454;SDS011;10386;54.314;10.022;2022-07-06T01:15:21;5.30;;;1.83;;
20454;SDS011;10386;54.314;10.022;2022-07-06T01:17:51;3.30;;;1.67;;
20454;SDS011;10386;54.314;10.022;2022-07-06T01:20:23;4.03;;;1.60;;
20454;SDS011;10386;54.314;10.022;2022-07-06T01:22:53;4.77;;;1.43;;
20454;SDS011;10386;54.314;10.022;2022-07-06T01:25:23;5.90;;;1.40;;
20454;SDS011;10386;54.314;10.022;2022-07-06T01:27:52;6.03;;;1.80;;
20454;SDS011;10386;54.314;10.022;2022-07-06T01:30:20;6.63;;;1.50;;
20454;SDS011;10386;54.314;10.022;2022-07-06T01:32:51;2.60;;;1.07;;
20454;SDS011;10386;54.314;10.022;2022-07-06T01:35:19;7.70;;;2.13;;
20454;SDS011;10386;54.314;10.022;2022-07-06T01:37:47;3.63;;;1.67;;
20454;SDS011;10386;54.314;10.022;2022-07-06T01:40:15;4.87;;;1.60;;
20454;SDS011;10386;54.314;10.022;2022-07-06T01:42:44;6.23;;;1.87;;
20454;SDS011;10386;54.314;10.022;2022-07-06T01:45:12;5.87;;;1.77;;
20454;SDS011;10386;54.314;10.022;2022-07-06T01:47:40;7.40;;;1.60;;
20454;SDS011;10386;54.314;10.022;2022-07-06T01:50:08;3.53;;;1.57;;
20454;SDS011;10386;54.314;10.022;2022-07-06T01:52:36;4.47;;;1.40;;
20454;SDS011;10386;54.314;10.022;2022-07-06T01:55:04;9.13;;;1.60;;
20454;SDS011;10386;54.314;10.022;2022-07-06T01:57:33;5.83;;;1.50;;
20454;SDS011;10386;54.314;10.022;2022-07-06T02:00:04;5.10;;;1.43;;
20454;SDS011;10386;54.314;10.022;2022-07-06T02:02:36;5.90;;;1.60;;
20454;SDS011;10386;54.314;10.022;2022-07-06T02:05:05;8.30;;;1.60;;
20454;SDS011;10386;54.314;10.022;2022-07-06T02:07:33;3.87;;;1.47;;
20454;SDS011;10386;54.314;10.022;2022-07-06T02:10:01;6.27;;;1.60;;
20454;SDS011;10386;54.314;10.022;2022-07-06T02:12:29;3.27;;;1.40;;
20454;SDS011;10386;54.314;10.022;2022-07-06T02:14:58;3.60;;;1.40;;
20454;SDS011;10386;54.314;10.022;2022-07-06T02:17:26;2.53;;;1.57;;
20454;SDS011;10386;54.314;10.022;2022-07-06T02:19:54;8.37;;;1.67;;
20454;SDS011;10386;54.314;10.022;2022-07-06T02:22:23;3.37;;;1.20;;
20454;SDS011;10386;54.314;10.022;2022-07-06T02:24:52;5.73;;;1.47;;
20454;SDS011;10386;54.314;10.022;2022-07-06T02:27:20;5.60;;;1.37;;
20454;SDS011;10386;54.314;10.022;2022-07-06T02:29:48;1.20;;;1.03;;
20454;SDS011;10386;54.314;10.022;2022-07-06T02:32:20;3.10;;;1.30;;
20454;SDS011;10386;54.314;10.022;2022-07-06T02:34:48;3.50;;;1.40;;
20454;SDS011;10386;54.314;10.022;2022-07-06T02:37:16;4.67;;;1.60;;
20454;SDS011;10386;54.314;10.022;2022-07-06T02:39:44;5.43;;;1.40;;
20454;SDS011;10386;54.314;10.022;2022-07-06T02:42:13;2.10;;;1.10;;
20454;SDS011;10386;54.314;10.022;2022-07-06T02:44:42;2.60;;;1.30;;
20454;SDS011;10386;54.314;10.022;2022-07-06T02:47:09;5.50;;;1.53;;
20454;SDS011;10386;54.314;10.022;2022-07-06T02:49:37;4.93;;;1.67;;
20454;SDS011;10386;54.314;10.022;2022-07-06T02:52:04;2.73;;;1.70;;
20454;SDS011;10386;54.314;10.022;2022-07-06T02:54:33;5.13;;;1.30;;
20454;SDS011;10386;54.314;10.022;2022-07-06T02:57:00;3.00;;;1.30;;
20454;SDS011;10386;54.314;10.022;2022-07-06T02:59:28;3.10;;;1.23;;
20454;SDS011;10386;54.314;10.022;2022-07-06T03:01:55;4.23;;;1.27;;
20454;SDS011;10386;54.314;10.022;2022-07-06T03:04:23;5.27;;;1.57;;
20454;SDS011;10386;54.314;10.022;2022-07-06T03:06:52;2.63;;;1.33;;
20454;SDS011;10386;54.314;10.022;2022-07-06T03:09:20;3.03;;;1.40;;
20454;SDS011;10386;54.314;10.022;2022-07-06T03:11:47;3.20;;;1.43;;
20454;SDS011;10386;54.314;10.022;2022-07-06T03:14:15;3.23;;;1.47;;
20454;SDS011;10386;54.314;10.022;2022-07-06T03:16:42;2.37;;;1.50;;
20454;SDS011;10386;54.314;10.022;2022-07-06T03:19:16;5.53;;;1.30;;
20454;SDS011;10386;54.314;10.022;2022-07-06T03:21:43;2.93;;;1.63;;
20454;SDS011;10386;54.314;10.022;2022-07-06T03:24:11;3.40;;;1.70;;
20454;SDS011;10386;54.314;10.022;2022-07-06T03:26:39;3.57;;;1.30;;
20454;SDS011;10386;54.314;10.022;2022-07-06T03:29:06;3.80;;;1.60;;
20454;SDS011;10386;54.314;10.022;2022-07-06T03:31:33;3.97;;;1.17;;
20454;SDS011;10386;54.314;10.022;2022-07-06T03:34:01;1.47;;;1.13;;
20454;SDS011;10386;54.314;10.022;2022-07-06T03:36:29;2.43;;;1.10;;
20454;SDS011;10386;54.314;10.022;2022-07-06T03:39:04;6.43;;;1.37;;
20454;SDS011;10386;54.314;10.022;2022-07-06T03:41:31;6.90;;;1.67;;
20454;SDS011;10386;54.314;10.022;2022-07-06T03:43:59;3.50;;;1.50;;
20454;SDS011;10386;54.314;10.022;2022-07-06T03:46:27;4.93;;;1.60;;
20454;SDS011;10386;54.314;10.022;2022-07-06T03:48:55;3.60;;;1.30;;
20454;SDS011;10386;54.314;10.022;2022-07-06T03:51:23;3.87;;;1.50;;
20454;SDS011;10386;54.314;10.022;2022-07-06T03:53:50;3.60;;;1.30;;
20454;SDS011;10386;54.314;10.022;2022-07-06T03:56:17;2.00;;;1.37;;
20454;SDS011;10386;54.314;10.022;2022-07-06T03:58:56;1.40;;;1.30;;
20454;SDS011;10386;54.314;10.022;2022-07-06T04:01:24;3.30;;;1.40;;
20454;SDS011;10386;54.314;10.022;2022-07-06T04:03:52;2.30;;;1.20;;
20454;SDS011;10386;54.314;10.022;2022-07-06T04:06:19;6.60;;;1.47;;
20454;SDS011;10386;54.314;10.022;2022-07-06T04:08:47;4.13;;;1.23;;
20454;SDS011;10386;54.314;10.022;2022-07-06T04:11:14;4.97;;;1.40;;
20454;SDS011;10386;54.314;10.022;2022-07-06T04:13:42;2.57;;;1.40;;
20454;SDS011;10386;54.314;10.022;2022-07-06T04:16:09;6.57;;;1.33;;
20454;SDS011;10386;54.314;10.022;2022-07-06T04:18:36;8.00;;;2.07;;
20454;SDS011;10386;54.314;10.022;2022-07-06T04:21:05;7.40;;;1.17;;
20454;SDS011;10386;54.314;10.022;2022-07-06T04:23:32;2.10;;;1.00;;
20454;SDS011;10386;54.314;10.022;2022-07-06T04:25:59;2.10;;;1.00;;
20454;SDS011;10386;54.314;10.022;2022-07-06T04:28:27;2.87;;;1.27;;
20454;SDS011;10386;54.314;10.022;2022-07-06T04:30:54;4.77;;;1.27;;
20454;SDS011;10386;54.314;10.022;2022-07-06T04:33:21;2.87;;;0.83;;
20454;SDS011;10386;54.314;10.022;2022-07-06T04:35:49;3.70;;;1.43;;
20454;SDS011;10386;54.314;10.022;2022-07-06T04:38:16;4.00;;;1.23;;
20454;SDS011;10386;54.314;10.022;2022-07-06T04:40:43;2.83;;;1.10;;
20454;SDS011;10386;54.314;10.022;2022-07-06T04:43:13;3.30;;;1.23;;
20454;SDS011;10386;54.314;10.022;2022-07-06T04:45:40;6.73;;;1.50;;
20454;SDS011;10386;54.314;10.022;2022-07-06T04:48:07;2.73;;;1.40;;
20454;SDS011;10386;54.314;10.022;2022-07-06T04:50:35;4.10;;;1.27;;
20454;SDS011;10386;54.314;10.022;2022-07-06T04:53:05;9.43;;;2.10;;
20454;SDS011;10386;54.314;10.022;2022-07-06T04:55:33;4.97;;;1.40;;
20454;SDS011;10386;54.314;10.022;2022-07-06T04:57:59;1.83;;;1.30;;
20454;SDS011;10386;54.314;10.022;2022-07-06T05:00:27;3.90;;;1.40;;
20454;SDS011;10386;54.314;10.022;2022-07-06T05:02:54;6.70;;;2.03;;
20454;SDS011;10386;54.314;10.022;2022-07-06T05:05:21;5.23;;;1.53;;
20454;SDS011;10386;54.314;10.022;2022-07-06T05:07:48;6.47;;;1.20;;
20454;SDS011;10386;54.314;10.022;2022-07-06T05:10:15;5.23;;;1.60;;
20454;SDS011;10386;54.314;10.022;2022-07-06T05:12:44;1.60;;;1.17;;
20454;SDS011;10386;54.314;10.022;2022-07-06T05:15:11;4.23;;;1.30;;
20454;SDS011;10386;54.314;10.022;2022-07-06T05:17:38;3.53;;;1.70;;
20454;SDS011;10386;54.314;10.022;2022-07-06T05:20:06;3.43;;;1.27;;
20454;SDS011;10386;54.314;10.022;2022-07-06T05:22:33;3.77;;;1.20;;
20454;SDS011;10386;54.314;10.022;2022-07-06T05:25:04;6.90;;;1.30;;
20454;SDS011;10386;54.314;10.022;2022-07-06T05:27:31;3.60;;;1.17;;
20454;SDS011;10386;54.314;10.022;2022-07-06T05:29:58;7.10;;;1.50;;
20454;SDS011;10386;54.314;10.022;2022-07-06T05:32:26;2.83;;;1.30;;
20454;SDS011;10386;54.314;10.022;2022-07-06T05:34:53;5.67;;;1.10;;
20454;SDS011;10386;54.314;10.022;2022-07-06T05:37:20;4.43;;;1.30;;
20454;SDS011;10386;54.314;10.022;2022-07-06T05:39:47;2.20;;;1.10;;
20454;SDS011;10386;54.314;10.022;2022-07-06T05:42:16;5.13;;;1.50;;
20454;SDS011;10386;54.314;10.022;2022-07-06T05:44:43;2.00;;;1.20;;
20454;SDS011;10386;54.314;10.022;2022-07-06T05:47:11;2.93;;;0.97;;
20454;SDS011;10386;54.314;10.022;2022-07-06T05:49:56;2.77;;;1.10;;
20454;SDS011;10386;54.314;10.022;2022-07-06T05:52:41;4.37;;;1.30;;
20454;SDS011;10386;54.314;10.022;2022-07-06T05:55:10;2.37;;;1.00;;
20454;SDS011;10386;54.314;10.022;2022-07-06T05:57:41;1.67;;;0.93;;
20454;SDS011;10386;54.314;10.022;2022-07-06T06:00:09;1.63;;;0.80;;
20454;SDS011;10386;54.314;10.022;2022-07-06T06:02:39;5.03;;;1.10;;
20454;SDS011;10386;54.314;10.022;2022-07-06T06:05:08;5.03;;;1.73;;
20454;SDS011;10386;54.314;10.022;2022-07-06T06:07:37;3.77;;;1.30;;
20454;SDS011;10386;54.314;10.022;2022-07-06T06:20:50;2.67;;;0.97;;
20454;SDS011;10386;54.314;10.022;2022-07-06T06:23:17;2.43;;;1.00;;
20454;SDS011;10386;54.314;10.022;2022-07-06T06:25:45;1.47;;;1.00;;
20454;SDS011;10386;54.314;10.022;2022-07-06T06:28:13;4.00;;;1.10;;
20454;SDS011;10386;54.314;10.022;2022-07-06T06:30:41;1.73;;;1.10;;
20454;SDS011;10386;54.314;10.022;2022-07-06T06:35:49;1.07;;;0.70;;
20454;SDS011;10386;54.314;10.022;2022-07-06T06:38:19;4.33;;;0.87;;
20454;SDS011;10386;54.314;10.022;2022-07-06T06:40:48;4.03;;;1.10;;
20454;SDS011;10386;54.314;10.022;2022-07-06T06:43:18;2.53;;;0.93;;
20454;SDS011;10386;54.314;10.022;2022-07-06T06:45:48;4.10;;;0.93;;
20454;SDS011;10386;54.314;10.022;2022-07-06T06:48:16;2.67;;;0.97;;
20454;SDS011;10386;54.314;10.022;2022-07-06T06:50:46;2.60;;;0.93;;
20454;SDS011;10386;54.314;10.022;2022-07-06T06:53:14;4.53;;;1.00;;
20454;SDS011;10386;54.314;10.022;2022-07-06T06:55:41;2.27;;;1.33;;
20454;SDS011;10386;54.314;10.022;2022-07-06T06:58:11;1.63;;;1.10;;
20454;SDS011;10386;54.314;10.022;2022-07-06T07:00:38;0.90;;;0.77;;
20454;SDS011;10386;54.314;10.022;2022-07-06T07:03:06;1.07;;;0.93;;
20454;SDS011;10386;54.314;10.022;2022-07-06T07:05:33;3.57;;;0.97;;
20454;SDS011;10386;54.314;10.022;2022-07-06T07:08:05;6.70;;;1.10;;
20454;SDS011;10386;54.314;10.022;2022-07-06T07:10:32;4.10;;;1.57;;
20454;SDS011;10386;54.314;10.022;2022-07-06T07:13:00;2.53;;;1.00;;
20454;SDS011;10386;54.314;10.022;2022-07-06T07:15:27;3.27;;;1.40;;
20454;SDS011;10386;54.314;10.022;2022-07-06T07:17:55;1.87;;;1.07;;
20454;SDS011;10386;54.314;10.022;2022-07-06T07:20:22;4.73;;;1.10;;
20454;SDS011;10386;54.314;10.022;2022-07-06T07:22:50;3.33;;;1.30;;
20454;SDS011;10386;54.314;10.022;2022-07-06T07:25:17;6.33;;;1.10;;
20454;SDS011;10386;54.314;10.022;2022-07-06T07:27:45;1.90;;;0.83;;
20454;SDS011;10386;54.314;10.022;2022-07-06T07:30:12;4.20;;;0.90;;
20454;SDS011;10386;54.314;10.022;2022-07-06T07:32:40;5.30;;;1.27;;
20454;SDS011;10386;54.314;10.022;2022-07-06T07:35:07;2.80;;;0.77;;
20454;SDS011;10386;54.314;10.022;2022-07-06T07:37:35;6.67;;;1.20;;
20454;SDS011;10386;54.314;10.022;2022-07-06T07:40:03;3.23;;;0.77;;
20454;SDS011;10386;54.314;10.022;2022-07-06T07:42:32;2.10;;;0.83;;
20454;SDS011;10386;54.314;10.022;2022-07-06T07:44:59;4.47;;;0.90;;
20454;SDS011;10386;54.314;10.022;2022-07-06T07:47:26;3.50;;;0.83;;
20454;SDS011;10386;54.314;10.022;2022-07-06T07:49:54;5.57;;;0.90;;
20454;SDS011;10386;54.314;10.022;2022-07-06T07:52:21;6.60;;;1.57;;
20454;SDS011;10386;54.314;10.022;2022-07-06T07:54:49;3.47;;;1.03;;
20454;SDS011;10386;54.314;10.022;2022-07-06T07:57:37;1.03;;;0.67;;
20454;SDS011;10386;54.314;10.022;2022-07-06T08:00:04;1.33;;;0.80;;
20454;SDS011;10386;54.314;10.022;2022-07-06T08:02:32;2.63;;;1.20;;
20454;SDS011;10386;54.314;10.022;2022-07-06T08:04:59;6.60;;;0.90;;
20454;SDS011;10386;54.314;10.022;2022-07-06T08:07:27;4.80;;;1.23;;
20454;SDS011;10386;54.314;10.022;2022-07-06T08:09:55;3.77;;;0.80;;
20454;SDS011;10386;54.314;10.022;2022-07-06T08:12:22;4.93;;;0.90;;
20454;SDS011;10386;54.314;10.022;2022-07-06T08:14:50;2.43;;;1.00;;
20454;SDS011;10386;54.314;10.022;2022-07-06T08:17:18;5.27;;;1.23;;
20454;SDS011;10386;54.314;10.022;2022-07-06T08:19:45;2.17;;;0.87;;
20454;SDS011;10386;54.314;10.022;2022-07-06T08:22:13;4.00;;;0.93;;
20454;SDS011;10386;54.314;10.022;2022-07-06T08:24:41;2.80;;;0.90;;
20454;SDS011;10386;54.314;10.022;2022-07-06T08:27:09;4.33;;;1.00;;
20454;SDS011;10386;54.314;10.022;2022-07-06T08:29:36;1.30;;;0.80;;
20454;SDS011;10386;54.314;10.022;2022-07-06T08:32:03;2.13;;;1.20;;
20454;SDS011;10386;54.314;10.022;2022-07-06T08:34:46;4.87;;;1.73;;
20454;SDS011;10386;54.314;10.022;2022-07-06T08:37:14;3.67;;;0.80;;
20454;SDS011;10386;54.314;10.022;2022-07-06T08:39:42;1.53;;;1.13;;
20454;SDS011;10386;54.314;10.022;2022-07-06T08:42:10;1.97;;;1.10;;
20454;SDS011;10386;54.314;10.022;2022-07-06T08:44:39;4.83;;;1.13;;
20454;SDS011;10386;54.314;10.022;2022-07-06T08:47:07;3.73;;;1.43;;
20454;SDS011;10386;54.314;10.022;2022-07-06T08:49:36;1.20;;;1.00;;
20454;SDS011;10386;54.314;10.022;2022-07-06T08:52:04;3.93;;;1.33;;
20454;SDS011;10386;54.314;10.022;2022-07-06T08:54:33;4.70;;;0.93;;
20454;SDS011;10386;54.314;10.022;2022-07-06T08:57:02;4.53;;;1.20;;
20454;SDS011;10386;54.314;10.022;2022-07-06T08:59:30;1.17;;;0.77;;
20454;SDS011;10386;54.314;10.022;2022-07-06T09:01:57;4.67;;;0.90;;
20454;SDS011;10386;54.314;10.022;2022-07-06T09:04:27;2.50;;;1.17;;
20454;SDS011;10386;54.314;10.022;2022-07-06T09:06:55;2.07;;;0.90;;
20454;SDS011;10386;54.314;10.022;2022-07-06T09:09:23;0.87;;;0.87;;
20454;SDS011;10386;54.314;10.022;2022-07-06T09:11:51;1.73;;;0.80;;
20454;SDS011;10386;54.314;10.022;2022-07-06T09:14:18;4.20;;;0.93;;
20454;SDS011;10386;54.314;10.022;2022-07-06T09:16:46;0.93;;;0.70;;
20454;SDS011;10386;54.314;10.022;2022-07-06T09:19:17;3.77;;;1.33;;
20454;SDS011;10386;54.314;10.022;2022-07-06T09:21:45;3.27;;;0.70;;
20454;SDS011;10386;54.314;10.022;2022-07-06T09:24:12;1.77;;;0.70;;
20454;SDS011;10386;54.314;10.022;2022-07-06T09:26:40;4.47;;;0.90;;
20454;SDS011;10386;54.314;10.022;2022-07-06T09:29:10;1.43;;;0.50;;
20454;SDS011;10386;54.314;10.022;2022-07-06T09:31:38;5.07;;;1.00;;
20454;SDS011;10386;54.314;10.022;2022-07-06T09:34:06;3.17;;;0.80;;
20454;SDS011;10386;54.314;10.022;2022-07-06T09:36:37;4.43;;;1.20;;
20454;SDS011;10386;54.314;10.022;2022-07-06T09:39:20;2.20;;;0.77;;
20454;SDS011;10386;54.314;10.022;2022-07-06T09:41:55;2.10;;;1.00;;
20454;SDS011;10386;54.314;10.022;2022-07-06T09:46:59;4.10;;;1.10;;
20454;SDS011;10386;54.314;10.022;2022-07-06T09:49:28;1.10;;;0.83;;
20454;SDS011;10386;54.314;10.022;2022-07-06T09:51:57;2.67;;;1.20;;
20454;SDS011;10386;54.314;10.022;2022-07-06T09:54:26;4.03;;;1.10;;
20454;SDS011;10386;54.314;10.022;2022-07-06T09:56:54;4.77;;;1.00;;
20454;SDS011;10386;54.314;10.022;2022-07-06T09:59:23;4.23;;;1.00;;
20454;SDS011;10386;54.314;10.022;2022-07-06T10:01:53;1.37;;;0.90;;
20454;SDS011;10386;54.314;10.022;2022-07-06T10:04:23;6.83;;;0.90;;
20454;SDS011;10386;54.314;10.022;2022-07-06T10:06:52;2.53;;;0.80;;
20454;SDS011;10386;54.314;10.022;2022-07-06T10:09:21;5.13;;;1.00;;
20454;SDS011;10386;54.314;10.022;2022-07-06T10:11:54;8.13;;;1.50;;
20454;SDS011;10386;54.314;10.022;2022-07-06T10:14:23;3.73;;;1.33;;
20454;SDS011;10386;54.314;10.022;2022-07-06T10:16:52;7.50;;;1.17;;
20454;SDS011;10386;54.314;10.022;2022-07-06T10:19:20;1.90;;;0.67;;
20454;SDS011;10386;54.314;10.022;2022-07-06T10:21:48;3.73;;;1.10;;
20454;SDS011;10386;54.314;10.022;2022-07-06T10:24:15;3.23;;;0.90;;
20454;SDS011;10386;54.314;10.022;2022-07-06T10:26:44;10.57;;;1.20;;
20454;SDS011;10386;54.314;10.022;2022-07-06T10:29:13;6.23;;;1.20;;
20454;SDS011;10386;54.314;10.022;2022-07-06T10:31:43;3.17;;;0.70;;
20454;SDS011;10386;54.314;10.022;2022-07-06T10:34:13;2.70;;;0.97;;
20454;SDS011;10386;54.314;10.022;2022-07-06T10:36:43;3.30;;;1.13;;
20454;SDS011;10386;54.314;10.022;2022-07-06T10:39:15;3.77;;;1.27;;
20454;SDS011;10386;54.314;10.022;2022-07-06T10:42:01;2.17;;;0.90;;
20454;SDS011;10386;54.314;10.022;2022-07-06T10:44:28;4.33;;;0.93;;
20454;SDS011;10386;54.314;10.022;2022-07-06T10:46:56;4.70;;;1.17;;
20454;SDS011;10386;54.314;10.022;2022-07-06T10:49:25;2.37;;;0.90;;
20454;SDS011;10386;54.314;10.022;2022-07-06T10:52:17;1.73;;;0.93;;
20454;SDS011;10386;54.314;10.022;2022-07-06T10:54:44;2.73;;;1.03;;
20454;SDS011;10386;54.314;10.022;2022-07-06T10:57:13;4.00;;;1.03;;
20454;SDS011;10386;54.314;10.022;2022-07-06T10:59:59;15.07;;;1.47;;
20454;SDS011;10386;54.314;10.022;2022-07-06T11:02:37;2.93;;;1.00;;
20454;SDS011;10386;54.314;10.022;2022-07-06T11:05:39;5.60;;;0.90;;
20454;SDS011;10386;54.314;10.022;2022-07-06T11:13:47;3.00;;;0.70;;
20454;SDS011;10386;54.314;10.022;2022-07-06T11:16:17;3.20;;;0.80;;
20454;SDS011;10386;54.314;10.022;2022-07-06T11:18:49;3.92;;;0.88;;
20454;SDS011;10386;54.314;10.022;2022-07-06T11:21:34;2.95;;;0.73;;
20454;SDS011;10386;54.314;10.022;2022-07-06T11:24:05;2.78;;;0.68;;
20454;SDS011;10386;54.314;10.022;2022-07-06T11:26:34;1.40;;;0.40;;
20454;SDS011;10386;54.314;10.022;2022-07-06T11:29:06;5.05;;;0.85;;
20454;SDS011;10386;54.314;10.022;2022-07-06T11:31:35;1.70;;;0.70;;
20454;SDS011;10386;54.314;10.022;2022-07-06T11:34:09;3.30;;;0.87;;
20454;SDS011;10386;54.314;10.022;2022-07-06T11:36:38;4.40;;;0.90;;
20454;SDS011;10386;54.314;10.022;2022-07-06T11:39:11;4.33;;;1.27;;
20454;SDS011;10386;54.314;10.022;2022-07-06T11:42:06;5.50;;;0.80;;
20454;SDS011;10386;54.314;10.022;2022-07-06T11:44:35;7.07;;;0.90;;
20454;SDS011;10386;54.314;10.022;2022-07-06T11:47:03;1.50;;;0.87;;
20454;SDS011;10386;54.314;10.022;2022-07-06T11:49:33;4.30;;;0.77;;
20454;SDS011;10386;54.314;10.022;2022-07-06T11:52:11;2.57;;;0.57;;
20454;SDS011;10386;54.314;10.022;2022-07-06T11:54:40;0.57;;;0.53;;
20454;SDS011;10386;54.314;10.022;2022-07-06T11:57:09;4.03;;;0.83;;
20454;SDS011;10386;54.314;10.022;2022-07-06T11:59:44;4.03;;;0.87;;
20454;SDS011;10386;54.314;10.022;2022-07-06T12:02:14;2.40;;;0.90;;
20454;SDS011;10386;54.314;10.022;2022-07-06T12:04:44;1.80;;;0.57;;
20454;SDS011;10386;54.314;10.022;2022-07-06T12:10:05;0.55;;;0.30;;
20454;SDS011;10386;54.314;10.022;2022-07-06T12:12:33;1.75;;;0.60;;
20454;SDS011;10386;54.314;10.022;2022-07-06T12:15:12;4.93;;;0.70;;
20454;SDS011;10386;54.314;10.022;2022-07-06T12:17:39;3.25;;;0.50;;
20454;SDS011;10386;54.314;10.022;2022-07-06T12:20:10;0.70;;;0.40;;
20454;SDS011;10386;54.314;10.022;2022-07-06T12:22:37;0.88;;;0.50;;
20454;SDS011;10386;54.314;10.022;2022-07-06T12:25:04;1.70;;;0.63;;
20454;SDS011;10386;54.314;10.022;2022-07-06T12:27:33;1.38;;;0.60;;
20454;SDS011;10386;54.314;10.022;2022-07-06T12:30:10;2.25;;;0.65;;
20454;SDS011;10386;54.314;10.022;2022-07-06T12:32:38;2.03;;;0.60;;
20454;SDS011;10386;54.314;10.022;2022-07-06T12:35:06;3.67;;;0.68;;
20454;SDS011;10386;54.314;10.022;2022-07-06T12:37:34;5.75;;;0.65;;
20454;SDS011;10386;54.314;10.022;2022-07-06T12:40:02;3.00;;;0.57;;
20454;SDS011;10386;54.314;10.022;2022-07-06T12:42:45;3.37;;;0.60;;
20454;SDS011;10386;54.314;10.022;2022-07-06T12:45:15;1.38;;;0.50;;
20454;SDS011;10386;54.314;10.022;2022-07-06T12:47:56;2.38;;;0.60;;
20454;SDS011;10386;54.314;10.022;2022-07-06T12:50:30;1.02;;;0.38;;
20454;SDS011;10386;54.314;10.022;2022-07-06T12:53:04;3.72;;;0.90;;
20454;SDS011;10386;54.314;10.022;2022-07-06T12:55:32;2.50;;;0.57;;
20454;SDS011;10386;54.314;10.022;2022-07-06T12:58:00;1.08;;;0.55;;
20454;SDS011;10386;54.314;10.022;2022-07-06T13:00:27;2.10;;;0.70;;
20454;SDS011;10386;54.314;10.022;2022-07-06T13:02:54;3.42;;;0.40;;
20454;SDS011;10386;54.314;10.022;2022-07-06T13:05:38;7.60;;;0.63;;
20454;SDS011;10386;54.314;10.022;2022-07-06T13:08:06;1.70;;;0.60;;
20454;SDS011;10386;54.314;10.022;2022-07-06T13:10:33;1.85;;;0.47;;
20454;SDS011;10386;54.314;10.022;2022-07-06T13:13:02;2.78;;;0.55;;
20454;SDS011;10386;54.314;10.022;2022-07-06T13:15:29;2.60;;;0.60;;
20454;SDS011;10386;54.314;10.022;2022-07-06T13:17:56;1.30;;;0.50;;
20454;SDS011;10386;54.314;10.022;2022-07-06T13:20:24;0.73;;;0.40;;
20454;SDS011;10386;54.314;10.022;2022-07-06T13:22:50;2.45;;;0.75;;
20454;SDS011;10386;54.314;10.022;2022-07-06T13:25:18;2.42;;;0.50;;
20454;SDS011;10386;54.314;10.022;2022-07-06T13:27:45;2.15;;;0.70;;
20454;SDS011;10386;54.314;10.022;2022-07-06T13:30:12;4.15;;;1.00;;
20454;SDS011;10386;54.314;10.022;2022-07-06T13:32:39;1.58;;;0.60;;
20454;SDS011;10386;54.314;10.022;2022-07-06T13:35:07;1.65;;;0.52;;
20454;SDS011;10386;54.314;10.022;2022-07-06T13:37:34;2.28;;;0.60;;
20454;SDS011;10386;54.314;10.022;2022-07-06T13:40:03;0.98;;;0.60;;
20454;SDS011;10386;54.314;10.022;2022-07-06T13:42:30;3.40;;;0.60;;
20454;SDS011;10386;54.314;10.022;2022-07-06T13:44:57;4.38;;;0.70;;
20454;SDS011;10386;54.314;10.022;2022-07-06T13:47:25;0.95;;;0.52;;
20454;SDS011;10386;54.314;10.022;2022-07-06T13:49:52;5.55;;;1.13;;
20454;SDS011;10386;54.314;10.022;2022-07-06T13:52:19;2.22;;;0.70;;
20454;SDS011;10386;54.314;10.022;2022-07-06T13:54:46;2.17;;;0.63;;
20454;SDS011;10386;54.314;10.022;2022-07-06T13:57:13;3.88;;;0.60;;
20454;SDS011;10386;54.314;10.022;2022-07-06T13:59:40;8.88;;;0.98;;
20454;SDS011;10386;54.314;10.022;2022-07-06T14:02:10;1.33;;;0.70;;
20454;SDS011;10386;54.314;10.022;2022-07-06T14:04:38;1.73;;;0.88;;
20454;SDS011;10386;54.314;10.022;2022-07-06T14:07:05;2.22;;;0.55;;
20454;SDS011;10386;54.314;10.022;2022-07-06T14:09:33;1.90;;;0.50;;
20454;SDS011;10386;54.314;10.022;2022-07-06T14:12:00;1.38;;;0.65;;
20454;SDS011;10386;54.314;10.022;2022-07-06T14:14:28;1.97;;;0.80;;
20454;SDS011;10386;54.314;10.022;2022-07-06T14:16:56;1.08;;;0.52;;
20454;SDS011;10386;54.314;10.022;2022-07-06T14:19:25;1.13;;;0.50;;
20454;SDS011;10386;54.314;10.022;2022-07-06T14:21:52;2.33;;;0.60;;
20454;SDS011;10386;54.314;10.022;2022-07-06T14:24:20;4.30;;;0.60;;
20454;SDS011;10386;54.314;10.022;2022-07-06T14:26:47;4.03;;;0.70;;
20454;SDS011;10386;54.314;10.022;2022-07-06T14:29:15;6.00;;;0.65;;
20454;SDS011;10386;54.314;10.022;2022-07-06T14:31:42;3.85;;;1.00;;
20454;SDS011;10386;54.314;10.022;2022-07-06T14:34:09;1.80;;;0.50;;
20454;SDS011;10386;54.314;10.022;2022-07-06T14:36:37;2.47;;;0.68;;
20454;SDS011;10386;54.314;10.022;2022-07-06T14:39:04;3.58;;;0.65;;
20454;SDS011;10386;54.314;10.022;2022-07-06T14:41:32;3.58;;;0.40;;
20454;SDS011;10386;54.314;10.022;2022-07-06T14:43:59;4.10;;;0.82;;
20454;SDS011;10386;54.314;10.022;2022-07-06T14:46:26;1.58;;;0.52;;
20454;SDS011;10386;54.314;10.022;2022-07-06T14:48:54;3.03;;;0.65;;
20454;SDS011;10386;54.314;10.022;2022-07-06T14:51:21;2.13;;;0.70;;
20454;SDS011;10386;54.314;10.022;2022-07-06T14:53:48;2.70;;;0.60;;
20454;SDS011;10386;54.314;10.022;2022-07-06T14:56:15;2.00;;;0.70;;
20454;SDS011;10386;54.314;10.022;2022-07-06T14:58:42;1.10;;;0.67;;
20454;SDS011;10386;54.314;10.022;2022-07-06T15:01:30;5.93;;;0.83;;
20454;SDS011;10386;54.314;10.022;2022-07-06T15:03:57;1.90;;;0.77;;
20454;SDS011;10386;54.314;10.022;2022-07-06T15:06:24;1.13;;;0.43;;
20454;SDS011;10386;54.314;10.022;2022-07-06T15:09:12;3.43;;;0.90;;
20454;SDS011;10386;54.314;10.022;2022-07-06T15:11:39;0.93;;;0.45;;